Time;durP1;ratioP1;P1;durP2;ratioP2;P2;SDS_P1;SDS_P2;PMS_P1;PMS_P2;Temp;Humidity;BMP_temperature;BMP_pressure;BME280_temperature;BME280_humidity;BME280_pressure;Samples;Min_cycle;Max_cycle;Signal;HPM_P1;HPM_P2
2023/03/14 00:00:18;;;;;;;4.28;2.20;;;10.10;99.90;;;9.21;100.00;95740.13;4913827;29;20413;-80
2023/03/14 00:02:44;;;;;;;3.38;2.40;;;10.10;99.90;;;9.00;100.00;95738.81;4915901;29;20424;-78
2023/03/14 00:05:10;;;;;;;3.88;2.28;;;9.90;99.90;;;9.07;100.00;95720.78;4917348;29;20421;-77
2023/03/14 00:07:39;;;;;;;7.10;2.60;;;10.00;99.90;;;9.17;100.00;95749.69;4917248;29;20429;-78
2023/03/14 00:10:08;;;;;;;5.97;2.33;;;10.10;99.90;;;9.24;100.00;95752.78;4917220;29;20500;-78
2023/03/14 00:12:34;;;;;;;3.08;2.20;;;10.10;99.90;;;9.39;100.00;95741.25;4916906;29;20783;-78
2023/03/14 00:15:02;;;;;;;4.47;2.60;;;10.20;99.90;;;9.26;100.00;95753.28;4917284;29;20500;-79
2023/03/14 00:17:28;;;;;;;4.25;2.55;;;10.20;99.90;;;9.29;100.00;95729.75;4917265;29;20406;-79
2023/03/14 00:19:54;;;;;;;5.28;2.88;;;10.20;99.90;;;9.21;100.00;95722.44;4916935;29;20409;-78
2023/03/14 00:22:20;;;;;;;4.10;2.50;;;10.10;99.90;;;9.23;100.00;95725.59;4916880;29;20915;-79
2023/03/14 00:24:47;;;;;;;4.47;2.40;;;10.10;99.90;;;9.21;100.00;95713.75;4917056;29;20438;-79
2023/03/14 00:27:13;;;;;;;6.75;2.60;;;10.20;99.90;;;9.21;100.00;95706.59;4916919;29;20440;-79
2023/03/14 00:29:39;;;;;;;5.35;2.58;;;10.20;99.90;;;9.24;100.00;95705.25;4916699;29;20436;-79
2023/03/14 00:32:05;;;;;;;5.27;2.53;;;10.20;99.90;;;9.29;100.00;95716.53;4916673;29;20405;-79
2023/03/14 00:34:32;;;;;;;5.28;2.90;;;10.20;99.90;;;9.35;100.00;95727.03;4916799;29;20536;-78
2023/03/14 00:36:58;;;;;;;7.35;2.78;;;10.30;99.90;;;9.32;100.00;95733.69;4916790;29;20812;-78
2023/03/14 00:39:24;;;;;;;4.45;2.40;;;10.20;99.90;;;9.31;100.00;95732.91;4916723;29;20453;-78
2023/03/14 00:41:51;;;;;;;6.40;2.50;;;10.30;99.90;;;9.32;100.00;95742.38;4916519;29;20508;-78
2023/03/14 00:44:17;;;;;;;3.67;2.20;;;10.30;99.90;;;9.34;100.00;95726.25;4916748;29;20573;-78
2023/03/14 00:46:43;;;;;;;5.05;2.63;;;10.20;99.90;;;9.27;100.00;95721.31;4916670;29;20516;-78
2023/03/14 00:49:09;;;;;;;4.10;2.43;;;10.20;99.90;;;9.29;100.00;95721.03;4916507;29;20420;-78
2023/03/14 00:51:35;;;;;;;6.00;2.70;;;10.20;99.90;;;9.25;100.00;95725.28;4916280;29;20413;-78
2023/03/14 00:54:01;;;;;;;5.45;2.67;;;10.20;99.90;;;9.22;100.00;95731.16;4916596;29;20891;-78
2023/03/14 00:56:27;;;;;;;7.07;2.45;;;10.10;99.90;;;9.22;100.00;95736.44;4916594;29;20488;-77
2023/03/14 00:58:55;;;;;;;5.25;2.53;;;10.10;99.90;;;9.15;100.00;95734.13;4916411;29;20764;-78
2023/03/14 01:01:22;;;;;;;3.90;2.25;;;10.10;99.90;;;9.27;100.00;95742.44;4916239;29;20511;-77
2023/03/14 01:03:52;;;;;;;4.70;2.50;;;10.20;99.90;;;9.29;100.00;95748.22;4916380;29;20874;-77
2023/03/14 01:06:20;;;;;;;3.45;1.98;;;10.20;99.90;;;9.29;100.00;95750.88;4916183;29;20462;-77
2023/03/14 01:08:47;;;;;;;3.17;2.10;;;10.20;99.90;;;9.40;100.00;95762.06;4916240;29;20914;-77
2023/03/14 01:11:16;;;;;;;3.30;2.13;;;10.30;99.90;;;9.37;100.00;95757.38;4916142;29;20807;-77
2023/03/14 01:13:42;;;;;;;4.83;2.27;;;10.30;99.90;;;9.53;100.00;95755.34;4915126;29;20436;-77
2023/03/14 01:16:12;;;;;;;4.72;2.55;;;10.40;99.90;;;9.47;100.00;95748.56;4916134;29;20511;-77
2023/03/14 01:18:41;;;;;;;4.78;2.30;;;10.40;99.90;;;9.36;100.00;95747.09;4916030;29;20424;-78
2023/03/14 01:21:13;;;;;;;4.68;2.08;;;10.30;99.90;;;9.32;100.00;95742.38;4915975;29;20499;-77
2023/03/14 01:23:39;;;;;;;4.18;2.42;;;10.30;99.90;;;9.38;100.00;95737.81;4915898;29;20772;-78
2023/03/14 01:26:09;;;;;;;4.97;2.15;;;10.30;99.90;;;9.40;100.00;95722.47;4915870;29;20967;-78
2023/03/14 01:28:35;;;;;;;3.30;1.90;;;10.30;99.90;;;9.37;100.00;95704.56;4915753;29;20413;-77
2023/03/14 01:31:03;;;;;;;4.00;2.38;;;10.30;99.90;;;9.26;100.00;95701.25;4915791;29;20508;-77
2023/03/14 01:33:30;;;;;;;5.90;2.30;;;10.20;99.90;;;9.22;100.00;95694.19;4915626;29;20471;-77
2023/03/14 01:35:56;;;;;;;6.40;2.47;;;10.20;99.90;;;9.20;100.00;95702.38;4915787;29;20413;-77
2023/03/14 01:38:22;;;;;;;5.43;2.47;;;10.10;99.90;;;9.30;100.00;95685.66;4915742;29;20492;-77
2023/03/14 01:40:48;;;;;;;4.20;2.10;;;10.20;99.90;;;9.14;100.00;95669.22;4915551;29;20430;-78
2023/03/14 01:43:17;;;;;;;5.20;2.25;;;10.10;99.90;;;9.10;100.00;95662.13;4915397;29;20414;-78
2023/03/14 01:46:32;;;;;;;2.75;2.10;;;10.10;99.90;;;9.17;100.00;95652.03;4915582;29;20899;-78
2023/03/14 01:49:10;;;;;;;4.78;2.30;;;10.10;99.90;;;9.15;100.00;95647.03;4912086;29;20800;-77
2023/03/14 01:51:45;;;;;;;4.00;2.15;;;10.10;99.90;;;9.12;100.00;95644.94;4915199;29;20421;-77
2023/03/14 01:54:18;;;;;;;4.20;2.25;;;10.10;99.90;;;9.11;100.00;95661.84;4915427;29;20412;-77
2023/03/14 01:56:49;;;;;;;4.45;2.33;;;10.00;99.90;;;9.08;100.00;95654.50;4915439;29;20416;-77
2023/03/14 01:59:15;;;;;;;5.10;2.22;;;10.00;99.90;;;9.00;100.00;95643.81;4915279;29;20416;-78
2023/03/14 02:01:45;;;;;;;4.53;2.00;;;9.90;99.90;;;8.97;100.00;95645.13;4915040;29;20405;-77
2023/03/14 02:04:14;;;;;;;5.80;2.22;;;9.90;99.90;;;9.01;100.00;95651.44;4915288;29;20484;-77
2023/03/14 02:06:48;;;;;;;6.00;2.13;;;10.00;99.90;;;9.17;100.00;95652.78;4915103;29;20900;-77
2023/03/14 02:09:15;;;;;;;4.70;2.25;;;10.00;99.90;;;9.19;100.00;95652.50;4915154;29;20910;-78
2023/03/14 02:11:41;;;;;;;6.38;2.13;;;10.10;99.90;;;9.11;100.00;95653.16;4914842;29;20496;-77
2023/03/14 02:14:13;;;;;;;4.18;2.20;;;10.00;99.90;;;9.04;100.00;95655.34;4915173;29;20478;-77
2023/03/14 02:16:39;;;;;;;3.78;2.00;;;10.00;99.90;;;8.96;100.00;95648.84;4914996;29;20405;-77
2023/03/14 02:19:07;;;;;;;5.33;2.33;;;9.90;99.90;;;8.92;100.00;95656.56;4915148;29;20927;-77
2023/03/14 02:21:48;;;;;;;5.95;2.20;;;9.90;99.90;;;8.95;100.00;95635.97;4914834;29;20966;-77
2023/03/14 02:24:23;;;;;;;6.00;2.23;;;9.90;99.90;;;8.97;100.00;95647.00;4914894;29;20448;-77
2023/03/14 02:27:07;;;;;;;6.75;2.47;;;9.80;99.90;;;8.86;100.00;95636.56;4914961;29;20428;-77
2023/03/14 02:29:39;;;;;;;6.35;2.10;;;9.70;99.90;;;8.86;100.00;95619.97;4914645;29;20915;-77
2023/03/14 02:32:06;;;;;;;3.40;2.00;;;9.80;99.90;;;8.85;100.00;95605.97;4914595;29;20821;-77
2023/03/14 02:34:33;;;;;;;2.28;1.92;;;9.80;99.90;;;8.90;100.00;95619.09;4914818;29;20417;-77
2023/03/14 02:37:00;;;;;;;6.65;1.90;;;9.80;99.90;;;8.88;100.00;95615.94;4914693;29;20884;-77
2023/03/14 02:39:34;;;;;;;3.55;1.80;;;9.80;99.90;;;9.08;100.00;95616.78;4914647;29;20409;-77
2023/03/14 02:42:00;;;;;;;5.25;2.20;;;9.80;99.90;;;8.91;100.00;95615.41;4914514;29;20417;-77
2023/03/14 02:44:28;;;;;;;4.28;1.80;;;9.80;99.90;;;8.89;100.00;95617.53;4914867;29;20420;-77
2023/03/14 02:46:54;;;;;;;3.83;1.80;;;9.80;99.90;;;8.87;100.00;95597.78;4913264;29;20483;-77
2023/03/14 02:49:19;;;;;;;4.28;2.28;;;9.80;99.90;;;8.85;100.00;95586.72;4914484;29;20907;-76
2023/03/14 02:51:46;;;;;;;5.35;2.03;;;9.70;99.90;;;8.84;100.00;95603.63;4914338;29;20483;-76
2023/03/14 02:54:14;;;;;;;7.30;2.20;;;9.70;99.90;;;8.80;100.00;95582.28;4914594;29;20452;-76
2023/03/14 02:56:40;;;;;;;4.53;1.95;;;9.70;99.90;;;8.91;100.00;95575.81;4914503;29;20468;-77
2023/03/14 02:59:06;;;;;;;5.25;2.00;;;9.70;99.90;;;8.84;100.00;95585.16;4914462;29;20413;-77
2023/03/14 03:01:34;;;;;;;4.93;2.20;;;9.70;99.90;;;8.78;100.00;95562.53;4914172;29;20484;-77
2023/03/14 03:04:00;;;;;;;5.78;2.05;;;9.70;99.90;;;8.87;100.00;95571.41;4914456;29;20421;-77
2023/03/14 03:06:26;;;;;;;5.00;2.15;;;9.70;99.90;;;8.78;100.00;95558.06;4914556;29;20421;-77
2023/03/14 03:08:52;;;;;;;5.78;2.30;;;9.60;99.90;;;8.71;100.00;95564.75;4914637;29;20421;-77
2023/03/14 03:11:18;;;;;;;8.73;2.20;;;9.60;99.90;;;8.59;100.00;95559.88;4914599;29;20479;-77
2023/03/14 03:13:44;;;;;;;4.63;2.15;;;9.50;99.90;;;8.61;100.00;95556.97;4914598;29;20413;-77
2023/03/14 03:16:13;;;;;;;5.65;2.22;;;9.50;99.90;;;8.68;100.00;95544.19;4914637;29;20911;-77
2023/03/14 03:18:40;;;;;;;4.85;2.13;;;9.60;99.90;;;8.66;100.00;95523.38;4914626;29;20409;-77
2023/03/14 03:21:08;;;;;;;9.25;2.40;;;9.60;99.90;;;8.64;100.00;95530.03;4914488;29;20408;-77
2023/03/14 03:23:34;;;;;;;8.52;2.83;;;9.50;99.90;;;8.62;100.00;95532.94;4914118;29;20856;-76
2023/03/14 03:26:02;;;;;;;5.88;2.08;;;9.50;99.90;;;8.76;100.00;95519.84;4914284;29;20432;-76
2023/03/14 03:28:28;;;;;;;6.90;2.40;;;9.50;99.90;;;8.62;100.00;95514.47;4914251;29;20945;-76
2023/03/14 03:30:53;;;;;;;5.18;2.40;;;9.60;99.90;;;8.68;100.00;95521.25;4914031;29;20508;-76
2023/03/14 03:33:19;;;;;;;5.75;2.40;;;9.50;99.90;;;8.74;100.00;95514.06;4914179;29;20808;-75
2023/03/14 03:35:49;;;;;;;7.47;2.60;;;9.60;99.90;;;8.65;100.00;95516.53;4914187;29;20441;-76
2023/03/14 03:38:16;;;;;;;9.13;2.33;;;9.50;99.90;;;8.51;100.00;95508.53;4917359;29;20412;-76
2023/03/14 03:40:42;;;;;;;7.40;2.63;;;9.50;99.90;;;8.54;100.00;95502.72;4917840;29;20496;-77
2023/03/14 03:43:08;;;;;;;9.70;2.38;;;9.40;99.90;;;8.62;100.00;95503.94;4917691;29;20409;-76
2023/03/14 03:45:34;;;;;;;7.32;2.47;;;9.50;99.90;;;8.51;100.00;95489.28;4916508;29;20950;-77
2023/03/14 03:48:00;;;;;;;10.90;2.53;;;9.40;99.90;;;8.46;100.00;95492.78;4917667;29;20903;-78
2023/03/14 03:50:26;;;;;;;11.85;2.58;;;9.30;99.90;;;8.41;100.00;95490.22;4917738;29;20416;-77
2023/03/14 03:52:53;;;;;;;8.60;2.70;;;9.30;99.90;;;8.54;100.00;95486.91;4916989;29;20448;-77
2023/03/14 03:55:19;;;;;;;12.45;2.78;;;9.40;99.90;;;8.49;100.00;95486.19;4917416;29;20464;-77
2023/03/14 03:57:45;;;;;;;9.77;2.97;;;9.40;99.90;;;8.43;100.00;95484.66;4917495;29;20469;-77
2023/03/14 04:00:12;;;;;;;12.32;3.00;;;9.30;99.90;;;8.24;100.00;95491.72;4917264;29;20423;-77
2023/03/14 04:02:38;;;;;;;12.63;2.72;;;9.10;99.90;;;8.22;100.00;95478.84;4917055;29;20907;-78
2023/03/14 04:05:05;;;;;;;6.13;2.45;;;9.10;99.90;;;8.12;100.00;95490.28;4917218;29;20424;-78
2023/03/14 04:07:31;;;;;;;13.38;2.90;;;9.10;99.90;;;8.15;100.00;95476.53;4915906;29;20432;-78
2023/03/14 04:09:59;;;;;;;12.00;2.80;;;9.10;99.90;;;8.23;100.00;95472.50;4917381;29;20440;-78
2023/03/14 04:12:24;;;;;;;13.77;3.20;;;9.00;99.90;;;8.06;100.00;95474.81;4917130;29;20413;-78
2023/03/14 04:14:50;;;;;;;9.98;3.20;;;9.00;99.90;;;7.98;100.00;95473.56;4917328;29;20556;-77
2023/03/14 04:17:16;;;;;;;11.82;2.97;;;8.90;99.90;;;7.83;100.00;95472.94;4917206;29;20504;-78
2023/03/14 04:19:42;;;;;;;8.80;2.70;;;8.80;99.90;;;7.99;100.00;95482.25;4917171;29;20520;-77
2023/03/14 04:22:08;;;;;;;9.53;2.70;;;8.80;99.90;;;7.90;100.00;95468.13;4915747;29;20425;-76
2023/03/14 04:24:35;;;;;;;11.38;2.75;;;8.80;99.90;;;7.92;100.00;95469.44;4917182;29;20484;-77
2023/03/14 04:27:02;;;;;;;16.38;2.95;;;8.90;99.90;;;7.91;100.00;95472.34;4915738;29;20517;-77
2023/03/14 04:29:28;;;;;;;12.30;2.73;;;8.90;99.90;;;8.07;100.00;95471.88;4916846;29;20443;-77
2023/03/14 04:31:54;;;;;;;10.82;2.40;;;9.00;99.90;;;8.04;100.00;95479.59;4915492;29;20461;-76
2023/03/14 04:34:20;;;;;;;8.20;2.50;;;8.90;99.90;;;8.00;100.00;95468.81;4916937;29;20451;-77
2023/03/14 04:36:46;;;;;;;15.82;3.00;;;9.00;99.90;;;7.91;100.00;95464.44;4916834;29;20414;-77
2023/03/14 04:39:18;;;;;;;14.75;2.85;;;8.80;99.90;;;7.90;100.00;95465.50;4916761;29;20963;-76
2023/03/14 04:41:44;;;;;;;15.70;2.95;;;8.80;99.90;;;7.91;100.00;95461.81;4916514;29;20413;-76
2023/03/14 04:44:12;;;;;;;12.98;2.90;;;8.80;99.90;;;7.89;100.00;95456.06;4916767;29;20423;-76
2023/03/14 04:46:38;;;;;;;16.10;3.20;;;8.80;99.90;;;7.84;100.00;95459.50;4915961;29;20450;-77
2023/03/14 04:49:03;;;;;;;9.32;2.60;;;8.80;99.90;;;7.82;100.00;95459.00;4929283;28;20493;-77
2023/03/14 04:51:29;;;;;;;10.23;2.58;;;8.80;99.90;;;7.91;100.00;95446.00;4906922;29;20424;-77
2023/03/14 04:53:55;;;;;;;12.48;2.80;;;8.90;99.90;;;7.88;100.00;95441.31;4907057;29;20414;-77
2023/03/14 04:56:21;;;;;;;15.50;3.10;;;8.80;99.90;;;7.87;100.00;95445.00;4905632;29;20478;-77
2023/03/14 04:58:47;;;;;;;8.00;2.40;;;8.80;99.90;;;7.88;100.00;95442.09;4907298;29;20492;-77
2023/03/14 05:01:15;;;;;;;9.15;2.90;;;8.90;99.90;;;7.92;100.00;95439.66;4906623;29;20475;-77
2023/03/14 05:03:41;;;;;;;14.90;2.63;;;8.90;99.90;;;7.91;100.00;95428.34;4905479;29;20411;-76
2023/03/14 05:06:07;;;;;;;11.38;2.80;;;8.90;99.90;;;7.76;100.00;95434.56;4907420;29;20413;-76
2023/03/14 05:08:33;;;;;;;9.32;2.40;;;8.70;99.90;;;7.83;100.00;95434.22;4906295;29;20746;-76
2023/03/14 05:10:59;;;;;;;14.13;2.67;;;8.70;99.90;;;7.72;100.00;95427.53;4900012;29;20499;-77
2023/03/14 05:13:25;;;;;;;9.13;2.33;;;8.70;99.90;;;7.69;100.00;95422.81;4906175;29;20423;-76
2023/03/14 05:15:51;;;;;;;13.48;2.35;;;8.60;99.90;;;7.74;100.00;95426.16;4911939;29;20830;-77
2023/03/14 05:18:19;;;;;;;9.07;2.42;;;8.60;99.90;;;7.70;100.00;95432.28;4902129;29;20850;-77
2023/03/14 05:20:44;;;;;;;12.35;2.92;;;8.60;99.90;;;7.64;100.00;95425.50;4903668;29;20415;-77
2023/03/14 05:23:11;;;;;;;11.48;2.95;;;8.60;99.90;;;7.81;100.00;95430.31;4911875;29;20459;-76
2023/03/14 05:25:37;;;;;;;16.23;2.90;;;8.70;99.90;;;7.71;100.00;95439.91;4917005;29;20590;-76
2023/03/14 05:28:03;;;;;;;13.85;2.88;;;8.60;99.90;;;7.87;100.00;95431.84;4917906;29;20527;-76
2023/03/14 05:30:30;;;;;;;14.38;2.45;;;8.60;99.90;;;7.80;100.00;95423.50;4918654;29;20568;-75
2023/03/14 05:32:56;;;;;;;6.88;2.13;;;8.70;99.90;;;7.73;100.00;95429.88;4914513;29;21095;-76
2023/03/14 05:35:24;;;;;;;16.83;2.60;;;8.70;99.90;;;7.81;100.00;95422.44;4906589;29;20420;-76
2023/03/14 05:37:49;;;;;;;13.30;2.97;;;8.70;99.90;;;7.81;100.00;95407.41;4904408;29;20407;-75
2023/03/14 05:40:16;;;;;;;12.87;2.40;;;8.70;99.90;;;7.78;100.00;95403.47;4904582;29;20482;-76
2023/03/14 05:42:42;;;;;;;7.70;2.35;;;8.70;99.90;;;7.78;100.00;95400.06;4903721;29;20566;-76
2023/03/14 05:45:08;;;;;;;12.95;2.50;;;8.70;99.90;;;7.58;100.00;95397.66;4905648;29;20449;-76
2023/03/14 05:47:34;;;;;;;12.52;2.45;;;8.50;99.90;;;7.51;100.00;95399.84;4903896;29;20431;-76
2023/03/14 05:50:00;;;;;;;10.32;2.38;;;8.40;99.90;;;7.49;100.00;95410.66;4904482;29;20797;-76
2023/03/14 05:52:27;;;;;;;9.57;2.20;;;8.40;99.90;;;7.55;100.00;95391.09;4902283;29;20944;-76
2023/03/14 05:54:53;;;;;;;8.82;2.15;;;8.50;99.90;;;7.60;100.00;95403.41;4902965;29;20450;-76
2023/03/14 05:57:19;;;;;;;6.70;2.13;;;8.60;99.90;;;7.53;100.00;95397.69;4904149;29;20475;-76
2023/03/14 05:59:45;;;;;;;9.00;2.47;;;8.50;99.90;;;7.58;100.00;95398.44;4905696;29;20420;-76
2023/03/14 06:02:11;;;;;;;9.60;2.30;;;8.50;99.90;;;7.56;100.00;95402.41;4911988;29;20456;-76
2023/03/14 06:04:37;;;;;;;9.15;2.47;;;8.50;99.90;;;7.63;100.00;95395.75;4914983;29;20414;-76
2023/03/14 06:07:03;;;;;;;10.98;2.40;;;8.50;99.90;;;7.45;100.00;95398.31;4929040;29;20433;-77
2023/03/14 06:09:30;;;;;;;7.75;2.10;;;8.40;99.90;;;7.44;100.00;95396.78;4914508;29;20475;-76
2023/03/14 06:11:56;;;;;;;8.90;2.28;;;8.40;99.90;;;7.44;100.00;95399.41;4914806;29;20417;-77
2023/03/14 06:14:22;;;;;;;11.97;2.27;;;8.40;99.90;;;7.44;100.00;95410.72;4915164;29;20417;-76
2023/03/14 06:16:48;;;;;;;7.22;1.95;;;8.40;99.90;;;7.53;100.00;95401.13;4915072;29;20420;-76
2023/03/14 06:19:14;;;;;;;7.45;2.25;;;8.50;99.90;;;7.57;100.00;95398.72;4914995;29;20414;-77
2023/03/14 06:21:40;;;;;;;9.25;2.03;;;8.50;99.90;;;7.55;100.00;95404.25;4914803;29;20827;-76
2023/03/14 06:24:06;;;;;;;7.43;2.20;;;8.50;99.90;;;7.55;100.00;95408.75;4915006;29;20473;-77
2023/03/14 06:26:34;;;;;;;7.45;2.30;;;8.50;99.90;;;7.70;100.00;95405.94;4914925;29;20910;-77
2023/03/14 06:29:03;;;;;;;8.13;2.15;;;8.60;99.90;;;7.66;100.00;95411.00;4914741;29;20409;-77
2023/03/14 06:31:29;;;;;;;9.57;2.50;;;8.60;99.90;;;7.63;100.00;95416.81;4914756;29;20413;-77
2023/03/14 06:33:55;;;;;;;8.20;2.22;;;8.60;99.90;;;7.62;100.00;95409.97;4914874;29;20416;-78
2023/03/14 06:36:21;;;;;;;9.30;2.28;;;8.60;99.90;;;7.64;100.00;95412.34;4914722;29;20492;-78
2023/03/14 06:38:47;;;;;;;6.63;2.17;;;8.60;99.90;;;7.64;100.00;95407.06;4914803;29;20895;-77
2023/03/14 06:41:13;;;;;;;7.97;2.10;;;8.60;99.90;;;7.61;100.00;95405.78;4914598;29;20417;-77
2023/03/14 06:43:40;;;;;;;9.93;2.40;;;8.60;99.90;;;7.57;100.00;95396.09;4913436;29;20420;-77
2023/03/14 06:46:06;;;;;;;7.22;2.05;;;8.60;99.90;;;7.58;100.00;95402.94;4912452;29;20460;-77
2023/03/14 06:48:32;;;;;;;8.57;2.70;;;8.50;99.90;;;7.63;100.00;95402.88;4913256;29;20436;-77
2023/03/14 06:50:58;;;;;;;6.63;2.10;;;8.60;99.90;;;7.68;100.00;95394.91;4913838;29;20421;-77
2023/03/14 06:53:24;;;;;;;7.25;2.17;;;8.60;99.90;;;7.73;100.00;95394.88;4914100;29;20441;-76
2023/03/14 06:55:50;;;;;;;7.85;2.10;;;8.70;99.90;;;7.77;100.00;95396.63;4914326;29;20445;-76
2023/03/14 06:58:16;;;;;;;5.57;2.15;;;8.70;99.90;;;7.81;100.00;95404.00;4914260;29;20485;-77
2023/03/14 07:00:43;;;;;;;6.85;2.17;;;8.80;99.90;;;7.75;100.00;95405.88;4914100;29;20415;-77
2023/03/14 07:03:11;;;;;;;8.35;2.25;;;8.70;99.90;;;7.82;100.00;95408.94;4914023;29;20417;-76
2023/03/14 07:05:40;;;;;;;5.18;1.90;;;8.70;99.90;;;7.85;100.00;95402.34;4914544;29;20410;-77
2023/03/14 07:08:06;;;;;;;11.75;2.35;;;8.80;99.90;;;7.84;100.00;95404.19;4913389;29;20429;-77
2023/03/14 07:10:32;;;;;;;7.45;2.00;;;8.70;99.90;;;7.94;100.00;95413.84;4913315;29;21005;-78
2023/03/14 07:12:57;;;;;;;6.43;1.92;;;8.90;99.90;;;8.00;100.00;95407.44;4911391;29;20409;-79
2023/03/14 07:15:23;;;;;;;4.32;2.30;;;8.90;99.90;;;8.10;100.00;95409.94;4913343;29;20792;-80
2023/03/14 07:17:51;;;;;;;8.47;1.93;;;9.00;99.90;;;8.16;100.00;95416.72;4913363;29;20444;-78
2023/03/14 07:20:17;;;;;;;4.38;1.80;;;9.10;99.90;;;7.97;100.00;95429.84;4913847;29;20416;-79
2023/03/14 07:22:43;;;;;;;10.13;2.00;;;8.90;99.90;;;8.15;100.00;95418.56;4912248;29;20421;-77
2023/03/14 07:25:11;;;;;;;4.03;1.70;;;9.00;99.90;;;8.22;100.00;95415.56;4912639;29;20508;-77
2023/03/14 07:27:37;;;;;;;4.50;1.80;;;9.10;99.90;;;8.38;100.00;95424.09;4912679;29;20425;-78
2023/03/14 07:30:05;;;;;;;2.85;1.60;;;9.30;99.90;;;8.52;100.00;95424.94;4913406;29;20763;-77
2023/03/14 07:32:32;;;;;;;6.50;2.10;;;9.40;99.90;;;8.44;100.00;95428.22;4916030;29;20470;-77
2023/03/14 07:34:59;;;;;;;5.65;1.50;;;9.30;99.90;;;8.64;100.00;95417.41;4931241;29;20499;-77
2023/03/14 07:37:25;;;;;;;3.25;1.27;;;9.50;99.90;;;8.76;100.00;95427.50;4923354;29;20416;-76
2023/03/14 07:39:51;;;;;;;5.20;1.63;;;9.60;99.90;;;9.16;100.00;95440.06;4928322;29;20962;-77
2023/03/14 07:42:17;;;;;;;5.15;1.73;;;9.90;99.90;;;9.17;100.00;95436.34;4919335;29;20409;-77
2023/03/14 07:44:43;;;;;;;3.57;1.70;;;10.00;99.90;;;9.11;100.00;95442.00;4914006;29;20473;-77
2023/03/14 07:47:09;;;;;;;4.57;1.20;;;10.00;99.90;;;9.22;100.00;95443.41;4913912;29;20433;-77
2023/03/14 07:49:35;;;;;;;4.68;1.60;;;10.00;99.90;;;9.40;100.00;95439.16;4913902;29;20520;-77
2023/03/14 07:52:02;;;;;;;5.45;1.42;;;10.20;99.90;;;9.64;100.00;95442.41;4913706;29;20413;-77
2023/03/14 07:54:28;;;;;;;3.57;1.30;;;10.40;99.90;;;9.77;100.00;95441.66;4916600;29;20500;-77
2023/03/14 07:56:54;;;;;;;4.20;1.40;;;10.50;99.90;;;9.64;100.00;95429.19;4910247;29;20813;-76
2023/03/14 07:59:20;;;;;;;8.73;1.80;;;10.40;99.90;;;9.75;100.00;95443.00;4908921;29;20432;-78
2023/03/14 08:01:46;;;;;;;4.32;1.27;;;10.50;99.90;;;9.68;100.00;95438.13;4917019;29;20485;-75
2023/03/14 08:04:18;;;;;;;4.50;1.25;;;10.50;99.90;;;9.58;100.00;95433.78;4913522;29;20409;-73
2023/03/14 08:06:44;;;;;;;2.80;1.30;;;10.40;99.90;;;9.53;100.00;95420.69;4913806;29;20501;-73
2023/03/14 08:09:11;;;;;;;3.65;1.27;;;10.30;99.90;;;9.76;100.00;95416.28;4913723;29;20441;-74
2023/03/14 08:11:37;;;;;;;3.75;1.45;;;10.50;99.90;;;10.02;100.00;95435.06;4913514;29;20413;-74
2023/03/14 08:14:03;;;;;;;3.28;1.30;;;10.80;99.90;;;9.99;100.00;95447.03;4913213;29;20926;-74
2023/03/14 08:16:29;;;;;;;2.75;1.20;;;10.80;99.90;;;10.19;100.00;95439.78;4912762;29;20409;-74
2023/03/14 08:18:56;;;;;;;3.47;1.30;;;10.90;99.90;;;10.14;100.00;95435.38;4909850;29;20628;-73
2023/03/14 08:21:22;;;;;;;2.95;1.30;;;10.90;99.90;;;10.00;100.00;95426.66;4913480;29;20413;-72
2023/03/14 08:23:47;;;;;;;2.55;1.00;;;10.90;99.90;;;9.97;100.00;95424.59;4915706;29;20417;-73
2023/03/14 08:26:15;;;;;;;4.07;1.30;;;10.80;99.90;;;10.17;100.00;95436.63;4917087;29;20437;-74
2023/03/14 08:28:46;;;;;;;2.10;1.20;;;10.90;99.90;;;10.32;100.00;95426.53;4916978;29;20520;-76
2023/03/14 08:31:12;;;;;;;5.07;1.30;;;11.10;99.90;;;10.43;100.00;95417.34;4915710;29;20421;-76
2023/03/14 08:33:38;;;;;;;3.65;1.20;;;11.20;99.90;;;10.47;100.00;95414.84;4916746;29;20428;-75
2023/03/14 08:36:05;;;;;;;2.67;1.40;;;11.20;99.90;;;10.43;100.00;95404.09;4915134;29;20902;-75
2023/03/14 08:38:31;;;;;;;3.67;1.25;;;11.20;99.90;;;10.58;100.00;95416.22;4916653;29;20421;-77
2023/03/14 08:40:59;;;;;;;2.83;1.30;;;11.40;99.90;;;10.46;100.00;95421.22;4920704;29;20419;-80
2023/03/14 08:43:27;;;;;;;4.55;1.10;;;11.30;99.90;;;10.35;100.00;95420.69;4918184;29;20409;-72
2023/03/14 08:45:53;;;;;;;2.90;1.20;;;11.20;99.90;;;10.36;100.00;95424.91;4916295;29;20946;-73
2023/03/14 08:48:19;;;;;;;4.50;1.30;;;11.20;99.90;;;10.17;100.00;95437.44;4916509;29;20429;-75
2023/03/14 08:50:45;;;;;;;2.63;1.13;;;11.00;99.90;;;10.09;100.00;95438.09;4929248;29;20423;-72
2023/03/14 08:53:11;;;;;;;3.78;1.17;;;10.90;99.90;;;10.12;100.00;95420.88;4935280;29;20450;-73
2023/03/14 08:55:37;;;;;;;3.70;1.20;;;10.90;99.90;;;10.42;100.00;95423.69;4935487;29;20495;-74
2023/03/14 08:58:03;;;;;;;2.28;1.15;;;11.20;99.90;;;10.63;100.00;95439.13;4921798;29;20987;-75
2023/03/14 09:00:30;;;;;;;2.47;1.20;;;11.40;99.90;;;10.77;100.00;95445.16;4916382;29;20417;-74
2023/03/14 09:02:56;;;;;;;4.43;1.30;;;11.60;99.90;;;10.73;100.00;95447.63;4921704;29;20414;-73
2023/03/14 09:05:22;;;;;;;4.00;1.60;;;11.50;99.90;;;10.78;100.00;95446.72;4935305;29;20785;-76
2023/03/14 09:07:50;;;;;;;3.30;1.02;;;11.60;99.90;;;11.07;100.00;95470.13;4935127;29;20459;-76
2023/03/14 09:10:16;;;;;;;2.08;1.02;;;11.70;99.90;;;10.92;100.00;95460.69;4917745;29;20493;-81
2023/03/14 09:12:42;;;;;;;4.80;1.30;;;11.60;99.90;;;10.80;100.00;95455.16;4918721;29;20424;-77
2023/03/14 09:15:09;;;;;;;1.80;0.90;;;11.60;99.90;;;10.76;100.00;95470.03;4927450;29;20445;-76
2023/03/14 09:17:37;;;;;;;4.40;1.17;;;11.50;99.90;;;11.11;100.00;95476.41;4914535;29;20496;-77
2023/03/14 09:20:07;;;;;;;2.15;1.00;;;11.70;99.90;;;11.24;100.00;95494.09;4911948;29;20969;-76
2023/03/14 09:22:35;;;;;;;2.00;0.95;;;12.00;99.90;;;11.40;100.00;95486.56;4906979;29;20436;-76
2023/03/14 09:25:02;;;;;;;2.65;0.90;;;12.10;99.90;;;11.52;100.00;95494.75;4912284;29;20436;-75
2023/03/14 09:27:27;;;;;;;1.92;1.00;;;12.30;99.90;;;11.93;100.00;95491.88;4911233;29;20433;-73
2023/03/14 09:29:59;;;;;;;1.05;0.93;;;12.60;99.90;;;11.95;100.00;95492.38;4925686;23;20458;-90
2023/03/14 09:32:31;;;;;;;1.52;0.90;;;12.70;99.90;;;11.77;100.00;95490.72;4914229;29;20436;-81
2023/03/14 09:34:58;;;;;;;2.20;1.00;;;12.60;99.90;;;11.98;100.00;95510.31;4905123;29;20965;-77
2023/03/14 09:37:24;;;;;;;1.95;1.00;;;12.70;99.90;;;11.69;100.00;95499.38;4906742;29;20429;-77
2023/03/14 09:39:53;;;;;;;4.05;1.10;;;12.50;99.90;;;11.63;100.00;95501.38;4906778;29;20429;-78
2023/03/14 09:42:24;;;;;;;3.25;1.00;;;12.40;99.90;;;11.43;100.00;95502.63;4902396;29;21041;-77
2023/03/14 09:44:56;;;;;;;3.78;0.95;;;12.20;99.90;;;11.46;100.00;95514.50;4904732;29;20503;-75
2023/03/14 09:47:23;;;;;;;2.58;1.00;;;12.20;99.90;;;11.44;100.00;95525.41;4907266;29;20437;-75
2023/03/14 09:49:52;;;;;;;1.00;0.90;;;12.20;99.90;;;11.51;100.00;95509.06;4906946;29;20447;-80
2023/03/14 09:52:24;;;;;;;2.20;0.93;;;12.20;99.90;;;11.39;100.00;95512.28;4906359;29;20432;-75
2023/03/14 09:54:53;;;;;;;4.30;1.02;;;12.20;99.90;;;11.25;100.00;95507.06;4902498;29;20425;-75
2023/03/14 09:57:23;;;;;;;2.10;0.88;;;12.00;99.90;;;11.27;100.00;95508.63;4910404;29;21020;-74
2023/03/14 09:59:52;;;;;;;1.42;0.90;;;12.00;99.90;;;11.13;100.00;95500.72;4907440;29;20435;-77
2023/03/14 10:02:21;;;;;;;1.40;0.90;;;12.00;99.90;;;11.03;100.00;95491.16;4906174;29;20435;-75
2023/03/14 10:04:49;;;;;;;2.10;0.90;;;11.80;99.90;;;10.97;100.00;95489.72;4905032;29;20960;-77
2023/03/14 10:07:19;;;;;;;2.25;0.90;;;11.80;99.90;;;11.04;100.00;95489.28;4907184;29;20447;-75
2023/03/14 10:09:49;;;;;;;2.17;1.08;;;11.80;99.90;;;11.37;100.00;95482.66;4906966;29;20513;-82
2023/03/14 10:12:16;;;;;;;2.05;0.93;;;12.20;99.90;;;11.99;100.00;95469.44;4907575;29;20437;-85
2023/03/14 10:14:49;;;;;;;1.98;0.70;;;12.90;99.90;;;12.76;100.00;95463.56;4907745;29;20433;-81
2023/03/14 10:17:16;;;;;;;1.73;0.80;;;13.70;99.90;;;13.22;100.00;95462.97;4909384;29;20431;-82
2023/03/14 10:19:55;;;;;;;0.77;0.70;;;14.20;99.90;;;13.50;100.00;95479.31;4914519;29;20861;-83